Kah Nee Ta, Oregon
Current Conditions -  °F | °C
As of 12:27 AM on Thursday 29 Jan 2015 (Local Time) from KRDM Reporting Station
Broken Clouds Broken Clouds  
Wind Chill: 30°   Ceiling: 300
Heat Index: 30°   Visibility: 10mi
Dew Point: 29°   Wind: 3mph
Humidity: 96%   Direction: 170°S
Pressure: 30.34"   Gusts: NA
Location:  44.7239°N, 121.498°W
Report Text: KRDM 290827Z AUTO 17003KT 10SM BKN003 M01/M02 A3034 RMK AO2 T10111017
Loading
Personal Weather Stations






























Interactive Weather Map New forecast layout! Learn more

10-Day Weather Forecast

Advertisements
Track Severe Weather on mobile